createdAt,value
2018-08-13T00:04:43.494Z,20.1
2018-08-13T00:14:42.733Z,20.2
2018-08-13T00:24:41.978Z,20.1
2018-08-13T00:34:41.223Z,20
2018-08-13T00:44:40.451Z,19.9
2018-08-13T00:54:39.746Z,19.9
2018-08-13T01:04:38.930Z,19.8
2018-08-13T01:14:38.170Z,19.6
2018-08-13T01:24:37.461Z,19.5
2018-08-13T01:34:36.649Z,19.6
2018-08-13T01:44:35.890Z,19.5
2018-08-13T01:54:35.132Z,19.5
2018-08-13T02:04:34.365Z,19.4
2018-08-13T02:14:33.602Z,19.4
2018-08-13T02:24:32.840Z,19.4
2018-08-13T02:34:32.079Z,19.2
2018-08-13T02:44:31.321Z,19.1
2018-08-13T02:54:30.557Z,19.1
2018-08-13T03:04:29.818Z,19
2018-08-13T03:14:29.090Z,19.1
2018-08-13T03:24:28.280Z,19
2018-08-13T03:34:27.514Z,18.9
2018-08-13T03:44:26.803Z,18.9
2018-08-13T03:54:25.992Z,19.1
2018-08-13T04:04:25.232Z,19.4
2018-08-13T04:14:24.476Z,20
2018-08-13T04:24:23.714Z,20.9
2018-08-13T04:34:22.956Z,21.6
2018-08-13T04:44:22.191Z,22.1
2018-08-13T04:54:21.430Z,22.6
2018-08-13T05:04:20.669Z,23.1
2018-08-13T05:14:19.909Z,23.5
2018-08-13T05:24:19.145Z,24
2018-08-13T05:34:18.385Z,24.6
2018-08-13T05:44:17.622Z,25.2
2018-08-13T05:54:16.868Z,25.4
2018-08-13T06:04:16.101Z,25.8
2018-08-13T06:14:15.347Z,26.4
2018-08-13T06:24:14.587Z,26.6
2018-08-13T06:34:13.838Z,26.8
2018-08-13T06:44:13.054Z,26.9
2018-08-13T06:54:12.293Z,26.9
2018-08-13T07:04:11.533Z,28.1
2018-08-13T07:14:10.782Z,28.4
2018-08-13T07:24:10.011Z,28.8
2018-08-13T07:34:09.250Z,28.9
2018-08-13T07:44:08.489Z,29.4
2018-08-13T07:54:07.731Z,29.4
2018-08-13T08:04:06.963Z,30.1
2018-08-13T08:14:06.204Z,30.6
2018-08-13T08:24:05.445Z,31.2
2018-08-13T08:34:04.680Z,32
2018-08-13T08:44:03.920Z,32.3
2018-08-13T08:54:03.158Z,32.1
2018-08-13T09:04:02.400Z,31.7
2018-08-13T09:14:01.673Z,31.1
2018-08-13T09:24:00.877Z,30.8
2018-08-13T09:34:00.117Z,30.6
2018-08-13T09:43:59.359Z,30.3
2018-08-13T09:53:58.599Z,30.3
2018-08-13T10:03:57.843Z,30.4
2018-08-13T10:13:57.081Z,30.1
2018-08-13T10:23:56.318Z,30.3
2018-08-13T10:33:55.560Z,30.6
2018-08-13T10:43:54.808Z,30.8
2018-08-13T10:53:54.041Z,30.6
2018-08-13T11:03:53.282Z,30.8
2018-08-13T11:13:52.525Z,30.6
2018-08-13T11:23:51.763Z,30.4
2018-08-13T11:33:51.003Z,30.4
2018-08-13T11:43:50.243Z,30.4
2018-08-13T11:53:49.486Z,30.6
2018-08-13T12:03:48.724Z,30.4
2018-08-13T12:13:47.965Z,30.1
2018-08-13T12:23:47.207Z,30.1
2018-08-13T12:33:46.450Z,29.6
2018-08-13T12:43:45.693Z,29.4
2018-08-13T12:53:44.928Z,29.4
2018-08-13T13:03:44.174Z,29.1
2018-08-13T13:13:43.406Z,29
2018-08-13T13:23:42.646Z,28.6
2018-08-13T13:33:41.936Z,28.4
2018-08-13T13:43:41.176Z,28.3
2018-08-13T13:53:40.368Z,28.1
2018-08-13T14:03:39.605Z,28.1
2018-08-13T14:13:38.845Z,28
2018-08-13T14:23:38.084Z,27.9
2018-08-13T14:33:37.327Z,27.9
2018-08-13T14:43:36.568Z,27.6
2018-08-13T14:53:35.805Z,27.6
2018-08-13T15:03:35.046Z,27.4
2018-08-13T15:13:34.285Z,27.4
2018-08-13T15:23:33.526Z,27.3
2018-08-13T15:33:32.820Z,27.3
2018-08-13T15:43:32.012Z,27.2
2018-08-13T15:53:31.303Z,27.1
2018-08-13T16:03:30.496Z,27
2018-08-13T16:13:29.736Z,26.9
2018-08-13T16:23:28.982Z,26.9
2018-08-13T16:33:28.224Z,26.6
2018-08-13T16:43:27.467Z,26.3
2018-08-13T16:53:26.710Z,26.1
2018-08-13T17:03:25.952Z,25.8
2018-08-13T17:13:25.216Z,25.5
2018-08-13T17:23:24.441Z,25.1
2018-08-13T17:33:23.682Z,24.8
2018-08-13T17:43:22.933Z,24.3
2018-08-13T17:53:22.164Z,24
2018-08-13T18:03:21.410Z,23.9
2018-08-13T18:13:20.660Z,23.5
2018-08-13T18:23:19.897Z,23.3
2018-08-13T18:33:19.143Z,23.1
2018-08-13T18:43:18.383Z,23.1
2018-08-13T18:53:17.623Z,23.1
2018-08-13T19:03:16.867Z,23
2018-08-13T19:13:16.110Z,22.9
2018-08-13T19:23:15.352Z,22.9
2018-08-13T19:33:14.601Z,22.9
2018-08-13T19:43:13.842Z,22.9
2018-08-13T19:53:13.079Z,22.8
2018-08-13T20:03:12.326Z,22.8
2018-08-13T20:13:11.571Z,22.6
2018-08-13T20:23:10.813Z,22.5
2018-08-13T20:33:10.057Z,22.4
2018-08-13T20:43:09.293Z,22.3
2018-08-13T20:53:08.534Z,22.2
2018-08-13T21:03:07.779Z,22.1
2018-08-13T21:13:07.021Z,22
2018-08-13T21:23:06.258Z,21.9
2018-08-13T21:33:05.501Z,21.8
2018-08-13T21:43:04.747Z,21.7
2018-08-13T21:53:03.982Z,21.6
2018-08-13T22:03:03.223Z,21.6
2018-08-13T22:13:02.463Z,21.5
2018-08-13T22:23:01.703Z,21.4
2018-08-13T22:33:00.941Z,21.3
2018-08-13T22:43:00.210Z,21.3
2018-08-13T22:52:59.421Z,21.2
2018-08-13T23:02:58.662Z,21.1
2018-08-13T23:12:57.902Z,20.9
2018-08-13T23:22:57.143Z,20.9
2018-08-13T23:32:56.384Z,20.8
2018-08-13T23:42:55.623Z,20.7
2018-08-13T23:52:54.862Z,20.7
